createdAt,value
2018-06-15T00:01:42.384Z,50.3
2018-06-15T00:06:40.122Z,50.4
2018-06-15T00:11:38.096Z,50.4
2018-06-15T00:16:36.217Z,50.4
2018-06-15T00:21:34.475Z,50.4
2018-06-15T00:26:32.263Z,50.3
2018-06-15T00:31:30.473Z,50.3
2018-06-15T00:36:28.820Z,50.2
2018-06-15T00:41:26.835Z,50.2
2018-06-15T00:46:25.075Z,50.3
2018-06-15T00:51:23.460Z,50.3
2018-06-15T00:56:21.718Z,50.3
2018-06-15T01:01:20.044Z,50.4
2018-06-15T01:06:18.357Z,50.4
2018-06-15T01:11:16.176Z,50.4
2018-06-15T01:16:14.403Z,50.4
2018-06-15T01:21:12.596Z,50.4
2018-06-15T01:26:10.954Z,50.4
2018-06-15T01:31:08.894Z,50.4
2018-06-15T01:36:07.088Z,50.4
2018-06-15T01:41:05.081Z,50.3
2018-06-15T01:46:03.439Z,50.4
2018-06-15T01:51:01.689Z,50.4
2018-06-15T01:55:59.513Z,50.4
2018-06-15T02:00:57.700Z,50.4
2018-06-15T02:05:55.976Z,50.4
2018-06-15T02:10:54.186Z,50.4
2018-06-15T02:15:52.302Z,50.4
2018-06-15T02:20:50.302Z,50.4
2018-06-15T02:25:48.656Z,50.5
2018-06-15T02:30:46.784Z,50.5
2018-06-15T02:35:44.880Z,50.5
2018-06-15T02:40:43.271Z,50.4
2018-06-15T02:45:41.551Z,50.4
2018-06-15T02:50:40.007Z,50.4
2018-06-15T02:55:38.237Z,50.4
2018-06-15T03:00:36.069Z,50.4
2018-06-15T03:05:34.304Z,50.4
2018-06-15T03:10:32.748Z,50.4
2018-06-15T03:15:31.029Z,50.5
2018-06-15T03:20:29.231Z,50.5
2018-06-15T03:25:27.625Z,50.5
2018-06-15T03:30:26.125Z,50.5
2018-06-15T03:35:24.323Z,50.5
2018-06-15T03:40:22.600Z,50.5
2018-06-15T03:45:20.816Z,50.5
2018-06-15T03:50:18.986Z,50.5
2018-06-15T03:55:17.143Z,50.5
2018-06-15T04:00:15.495Z,50.4
2018-06-15T04:05:13.769Z,50.5
2018-06-15T04:10:11.974Z,50.4
2018-06-15T04:15:10.089Z,50.5
2018-06-15T04:20:08.561Z,50.5
2018-06-15T04:25:06.242Z,50.5
2018-06-15T04:30:04.545Z,50.5
2018-06-15T04:35:02.817Z,50.6
2018-06-15T04:40:01.008Z,50.6
2018-06-15T04:44:59.249Z,50.6
2018-06-15T04:49:57.386Z,50.6
2018-06-15T04:54:55.667Z,50.6
2018-06-15T04:59:53.914Z,50.6
2018-06-15T05:04:52.292Z,50.6
2018-06-15T05:09:49.993Z,50.7
2018-06-15T05:14:47.810Z,50.7
2018-06-15T05:19:46.202Z,50.7
2018-06-15T05:24:44.477Z,50.7
2018-06-15T05:29:42.387Z,50.7
2018-06-15T05:34:40.814Z,50.7
2018-06-15T05:39:39.139Z,50.8
2018-06-15T05:44:37.511Z,50.8
2018-06-15T05:49:35.898Z,50.8
2018-06-15T05:54:34.444Z,50.8
2018-06-15T05:59:32.707Z,50.8
2018-06-15T06:04:31.335Z,50.8
2018-06-15T06:09:29.807Z,50.9
2018-06-15T06:14:28.172Z,50.9
2018-06-15T06:19:26.359Z,50.9
2018-06-15T06:24:24.303Z,50.9
2018-06-15T06:29:22.902Z,51
2018-06-15T06:34:21.536Z,51
2018-06-15T06:39:19.476Z,51
2018-06-15T06:44:17.903Z,51
2018-06-15T06:49:16.162Z,51.1
2018-06-15T06:54:14.445Z,51.1
2018-06-15T06:59:12.791Z,51.1
2018-06-15T07:04:11.226Z,51.2
2018-06-15T07:09:09.563Z,51.3
2018-06-15T07:14:08.238Z,51.3
2018-06-15T07:19:06.697Z,51.4
2018-06-15T07:24:05.225Z,51.4
2018-06-15T07:29:03.623Z,51.4
2018-06-15T07:34:01.940Z,51.5
2018-06-15T07:38:59.851Z,51.5
2018-06-15T07:43:58.294Z,51.5
2018-06-15T07:48:56.666Z,51.5
2018-06-15T07:53:55.128Z,51.6
2018-06-15T07:58:53.581Z,51.6
2018-06-15T08:03:52.034Z,51.6
2018-06-15T08:08:50.550Z,51.7
2018-06-15T08:13:48.960Z,51.7
2018-06-15T08:18:47.590Z,51.8
2018-06-15T08:23:45.634Z,51.9
2018-06-15T08:28:44.037Z,52
2018-06-15T08:33:42.221Z,52
2018-06-15T08:38:40.588Z,52.8
2018-06-15T08:43:39.188Z,53.7
2018-06-15T08:48:37.682Z,54.6
2018-06-15T08:53:36.130Z,55.3
2018-06-15T08:58:34.641Z,55.4
2018-06-15T09:03:33.786Z,55.2
2018-06-15T09:08:32.225Z,54.9
2018-06-15T09:13:30.871Z,55.2
2018-06-15T09:18:29.352Z,55.8
2018-06-15T09:23:27.996Z,55.8
2018-06-15T09:28:26.241Z,55.5
2018-06-15T09:33:24.452Z,55.5
2018-06-15T09:38:22.908Z,55.6
2018-06-15T09:43:20.588Z,55.7
2018-06-15T09:48:19.306Z,55.7
2018-06-15T09:53:17.936Z,56.1
2018-06-15T09:58:16.644Z,55.8
2018-06-15T10:03:15.507Z,55.4
2018-06-15T10:08:14.836Z,55.3
2018-06-15T10:13:13.493Z,54.9
2018-06-15T10:18:11.917Z,54.4
2018-06-15T10:23:10.397Z,54.8
2018-06-15T10:33:12.423Z,54.9
2018-06-15T10:38:11.036Z,55.6
2018-06-15T10:43:09.695Z,55.8
2018-06-15T10:48:08.390Z,56.3
2018-06-15T10:53:07.093Z,56
2018-06-15T10:58:05.497Z,55.8
2018-06-15T11:03:04.114Z,55.8
2018-06-15T11:08:02.682Z,55.8
2018-06-15T11:13:01.583Z,56
2018-06-15T11:18:00.308Z,56.2
2018-06-15T11:22:58.559Z,56.2
2018-06-15T11:27:57.077Z,56.3
2018-06-15T11:32:55.717Z,56.3
2018-06-15T11:37:54.885Z,56
2018-06-15T11:42:53.395Z,55.2
2018-06-15T11:47:52.014Z,55.1
2018-06-15T11:52:50.133Z,55
2018-06-15T11:57:48.549Z,55.2
2018-06-15T12:02:47.239Z,55.2
2018-06-15T12:07:45.769Z,55.1
2018-06-15T12:12:44.290Z,55.2
2018-06-15T12:17:43.377Z,55.2
2018-06-15T12:22:42.837Z,55.4
2018-06-15T12:27:41.527Z,55.5
2018-06-15T12:32:40.219Z,55.4
2018-06-15T12:37:38.738Z,55.3
2018-06-15T12:42:37.398Z,55.1
2018-06-15T12:47:35.814Z,55.1
2018-06-15T12:52:34.081Z,55
2018-06-15T12:57:32.735Z,55
2018-06-15T13:02:31.452Z,54.9
2018-06-15T13:07:30.521Z,54.6
2018-06-15T13:12:30.461Z,54.1
2018-06-15T13:17:33.127Z,54
2018-06-15T13:22:31.014Z,53.6
2018-06-15T13:27:30.801Z,53.1
2018-06-15T13:32:29.520Z,52.7
2018-06-15T13:37:28.235Z,52.7
2018-06-15T13:42:27.003Z,52.5
2018-06-15T13:47:25.651Z,52.2
2018-06-15T13:52:24.206Z,52.5
2018-06-15T13:57:22.546Z,52.4
2018-06-15T14:02:20.990Z,52.3
2018-06-15T14:07:19.553Z,52
2018-06-15T14:12:17.850Z,51.6
2018-06-15T14:17:16.565Z,51.2
2018-06-15T14:22:15.176Z,51
2018-06-15T14:27:13.953Z,51
2018-06-15T14:32:12.407Z,51.1
2018-06-15T14:37:11.105Z,51
2018-06-15T14:42:09.459Z,50.7
2018-06-15T14:47:08.527Z,50.1
2018-06-15T14:52:07.550Z,49.6
2018-06-15T14:57:06.342Z,48.9
2018-06-15T15:02:05.127Z,48.5
2018-06-15T15:07:03.284Z,48.5
2018-06-15T15:12:01.576Z,48.5
2018-06-15T15:16:59.504Z,48.9
2018-06-15T15:21:58.273Z,49
2018-06-15T15:26:56.931Z,49.2
2018-06-15T15:31:55.399Z,49.6
2018-06-15T15:36:53.758Z,50.3
2018-06-15T15:41:52.268Z,51.1
2018-06-15T15:46:50.945Z,51.5
2018-06-15T15:51:49.630Z,51.7
2018-06-15T15:56:48.329Z,51.9
2018-06-15T16:01:46.650Z,52
2018-06-15T16:06:45.305Z,52.1
2018-06-15T16:11:43.948Z,52.2
2018-06-15T16:16:42.914Z,52.3
2018-06-15T16:21:41.979Z,52.4
2018-06-15T16:26:40.224Z,52.3
2018-06-15T16:31:38.589Z,52.5
2018-06-15T16:36:37.107Z,52.6
2018-06-15T16:41:35.596Z,52.8
2018-06-15T16:46:33.983Z,52.8
2018-06-15T16:51:32.515Z,52.8
2018-06-15T16:56:30.991Z,52.7
2018-06-15T17:01:29.641Z,52.7
2018-06-15T17:06:27.996Z,52.8
2018-06-15T17:11:26.589Z,52.7
2018-06-15T17:16:25.463Z,52.7
2018-06-15T17:21:24.243Z,52.6
2018-06-15T17:26:22.738Z,52.2
2018-06-15T17:31:21.208Z,52.3
2018-06-15T17:36:19.900Z,52.1
2018-06-15T17:41:18.682Z,51.9
2018-06-15T17:46:17.400Z,51.7
2018-06-15T17:51:16.070Z,51.7
2018-06-15T17:56:14.781Z,51.5
2018-06-15T18:01:13.508Z,51.4
2018-06-15T18:06:12.209Z,51.4
2018-06-15T18:11:10.559Z,51.5
2018-06-15T18:16:08.768Z,51.5
2018-06-15T18:21:07.321Z,51.5
2018-06-15T18:26:06.557Z,51.4
2018-06-15T18:31:04.905Z,51.3
2018-06-15T18:36:03.485Z,51.4
2018-06-15T18:41:02.235Z,51.5
2018-06-15T18:46:01.822Z,51.5
2018-06-15T18:51:00.124Z,51.5
2018-06-15T18:55:58.488Z,51.5
2018-06-15T19:00:57.095Z,51.5
2018-06-15T19:05:55.498Z,51.5
2018-06-15T19:10:54.274Z,51.5
2018-06-15T19:15:54.298Z,51.5
2018-06-15T19:20:52.854Z,51.5
2018-06-15T19:25:51.075Z,51.4
2018-06-15T19:30:49.950Z,51.4
2018-06-15T19:35:48.591Z,51.4
2018-06-15T19:40:47.226Z,51.4
2018-06-15T19:45:46.629Z,51.4
2018-06-15T19:50:45.266Z,51.4
2018-06-15T19:55:43.636Z,51.4
2018-06-15T20:00:42.284Z,51.4
2018-06-15T20:05:40.899Z,51.3
2018-06-15T20:10:39.514Z,51.3
2018-06-15T20:15:37.980Z,51.4
2018-06-15T20:20:36.569Z,51.4
2018-06-15T20:25:35.181Z,51.4
2018-06-15T20:30:33.899Z,51.4
2018-06-15T20:35:32.659Z,51.4
2018-06-15T20:40:31.474Z,51.4
2018-06-15T20:45:29.904Z,51.5
2018-06-15T20:50:28.624Z,51.5
2018-06-15T20:55:26.776Z,51.5
2018-06-15T21:00:25.296Z,51.4
2018-06-15T21:05:23.892Z,51.5
2018-06-15T21:10:22.434Z,51.4
2018-06-15T21:15:21.380Z,51.4
2018-06-15T21:20:19.780Z,51.5
2018-06-15T21:25:17.693Z,52
2018-06-15T21:30:15.914Z,52
2018-06-15T21:35:14.146Z,52.1
2018-06-15T21:40:12.342Z,52.1
2018-06-15T21:45:10.143Z,52.1
2018-06-15T21:50:08.516Z,52.2
2018-06-15T21:55:06.888Z,52.3
2018-06-15T22:00:05.253Z,52.4
2018-06-15T22:05:04.008Z,52.5
2018-06-15T22:10:02.401Z,52.5
2018-06-15T22:15:00.527Z,52.5
2018-06-15T22:19:58.917Z,52.6
2018-06-15T22:24:57.200Z,52.6
2018-06-15T22:29:55.310Z,52.6
2018-06-15T22:34:53.639Z,52.6
2018-06-15T22:39:52.083Z,52.5
2018-06-15T22:44:50.043Z,52.5
2018-06-15T22:49:48.162Z,52.7
2018-06-15T22:54:46.089Z,52.6
2018-06-15T22:59:44.442Z,52.7
2018-06-15T23:04:43.079Z,52.7
2018-06-15T23:09:41.388Z,52.8
2018-06-15T23:14:39.911Z,52.8
2018-06-15T23:19:38.257Z,53
2018-06-15T23:24:36.504Z,52.9
2018-06-15T23:29:34.732Z,52.9
2018-06-15T23:34:32.991Z,52.9
2018-06-15T23:39:31.274Z,53
2018-06-15T23:44:29.776Z,52.9
2018-06-15T23:49:27.789Z,52.9
2018-06-15T23:54:25.557Z,52.9
2018-06-15T23:59:23.999Z,52.9
